createdAt,value
2023-01-04T00:00:37.070Z,101508.31
2023-01-04T00:03:06.885Z,101491.78
2023-01-04T00:05:37.078Z,101491.78
2023-01-04T00:08:06.953Z,101487.87
2023-01-04T00:10:36.914Z,101484.70
2023-01-04T00:13:06.672Z,101481.09
2023-01-04T00:15:36.826Z,101481.09
2023-01-04T00:18:06.881Z,101475.45
2023-01-04T00:20:36.679Z,101474.48
2023-01-04T00:23:06.576Z,101468.39
2023-01-04T00:25:37.878Z,101463.10
2023-01-04T00:28:07.640Z,101466.93
2023-01-04T00:30:37.457Z,101463.47
2023-01-04T00:33:07.031Z,101456.01
2023-01-04T00:35:45.763Z,101463.83
2023-01-04T00:38:08.391Z,101466.61
2023-01-04T00:40:38.217Z,101480.04
2023-01-04T00:43:07.683Z,101472.25
2023-01-04T00:45:37.439Z,101476.19
2023-01-04T00:48:07.342Z,101468.98
2023-01-04T00:50:37.126Z,101472.76
2023-01-04T00:53:06.923Z,101469.38
2023-01-04T00:55:36.690Z,101467.70
2023-01-04T00:58:07.073Z,101472.92
2023-01-04T01:00:37.172Z,101477.41
2023-01-04T01:03:07.768Z,101474.39
2023-01-04T01:05:37.934Z,101477.41
2023-01-04T01:08:25.326Z,101473.10
2023-01-04T01:10:56.566Z,101471.84
2023-01-04T01:13:26.367Z,101471.45
2023-01-04T01:15:56.254Z,101463.27
2023-01-04T01:18:26.231Z,101468.80
2023-01-04T01:20:56.310Z,101459.88
2023-01-04T01:23:26.461Z,101455.16
2023-01-04T01:25:57.736Z,101455.24
2023-01-04T01:28:27.607Z,101452.20
2023-01-04T01:31:05.037Z,101452.64
2023-01-04T01:33:31.044Z,101447.09
2023-01-04T01:36:05.635Z,101447.09
2023-01-04T01:38:36.159Z,101446.66
2023-01-04T01:41:09.165Z,101444.50
2023-01-04T01:44:07.120Z,101437.17
2023-01-04T01:46:46.084Z,101432.40
2023-01-04T01:49:33.773Z,101435.86
2023-01-04T01:52:06.601Z,101431.55
2023-01-04T01:54:39.572Z,101431.55
2023-01-04T01:57:12.134Z,101432.12
2023-01-04T01:59:45.301Z,101424.59
2023-01-04T02:02:15.135Z,101427.73
2023-01-04T02:04:48.477Z,101423.86
2023-01-04T02:07:21.313Z,101418.25
2023-01-04T02:09:51.962Z,101418.25
2023-01-04T02:12:21.434Z,101416.09
2023-01-04T02:14:52.559Z,101414.79
2023-01-04T02:17:41.870Z,101403.28
2023-01-04T02:20:24.300Z,101403.28
2023-01-04T02:23:13.614Z,101401.81
2023-01-04T02:25:58.168Z,101402.26
2023-01-04T02:29:02.609Z,101389.80
2023-01-04T02:31:47.339Z,101390.70
2023-01-04T02:34:38.770Z,101388.53
2023-01-04T02:37:20.501Z,101388.96
2023-01-04T02:40:11.568Z,101373.08
2023-01-04T02:43:33.649Z,101374.41
2023-01-04T02:46:03.930Z,101374.41
2023-01-04T02:48:58.180Z,101378.06
2023-01-04T02:51:33.774Z,101375.96
2023-01-04T02:54:09.331Z,101371.66
2023-01-04T02:57:05.863Z,101356.21
2023-01-04T03:00:10.557Z,101363.50
2023-01-04T03:03:09.880Z,101355.34
2023-01-04T03:06:06.624Z,101356.58
2023-01-04T03:08:57.439Z,101349.72
2023-01-04T03:11:57.079Z,101343.56
2023-01-04T03:14:31.609Z,101348.81
2023-01-04T03:17:07.140Z,101338.84
2023-01-04T03:19:57.795Z,101335.45
2023-01-04T03:22:48.256Z,101326.75
2023-01-04T03:25:38.481Z,101326.73
2023-01-04T03:28:28.803Z,101327.49
2023-01-04T03:31:22.115Z,101327.14
2023-01-04T03:34:10.076Z,101321.95
2023-01-04T03:36:42.873Z,101311.75
2023-01-04T03:39:41.904Z,101313.08
2023-01-04T03:42:58.468Z,101303.55
2023-01-04T03:45:51.527Z,101301.31
2023-01-04T03:48:33.119Z,101302.17
2023-01-04T03:51:18.113Z,101291.66
2023-01-04T03:53:59.664Z,101288.83
2023-01-04T03:56:31.112Z,101282.34
2023-01-04T03:59:01.434Z,101275.88
2023-01-04T04:01:32.059Z,101275.89
2023-01-04T04:04:19.889Z,101273.34
2023-01-04T04:07:07.403Z,101276.30
2023-01-04T04:09:37.456Z,101266.77
2023-01-04T04:12:07.089Z,101264.20
2023-01-04T04:14:37.133Z,101262.47
2023-01-04T04:17:07.010Z,101260.82
2023-01-04T04:19:36.699Z,101261.77
2023-01-04T04:22:06.945Z,101258.40
2023-01-04T04:24:36.702Z,101253.63
2023-01-04T04:27:06.620Z,101251.92
2023-01-04T04:29:36.378Z,101251.92
2023-01-04T04:32:07.147Z,101246.75
2023-01-04T04:34:37.335Z,101248.44
2023-01-04T04:37:07.588Z,101251.46
2023-01-04T04:39:37.662Z,101247.95
2023-01-04T04:42:07.240Z,101245.73
2023-01-04T04:44:37.068Z,101245.38
2023-01-04T04:47:07.017Z,101249.33
2023-01-04T04:49:36.890Z,101238.09
2023-01-04T04:52:07.153Z,101239.88
2023-01-04T04:54:37.118Z,101236.84
2023-01-04T04:57:07.166Z,101230.80
2023-01-04T04:59:36.927Z,101225.17
2023-01-04T05:02:07.091Z,101221.13
2023-01-04T05:04:37.447Z,101216.06
2023-01-04T05:07:12.307Z,101219.99
2023-01-04T05:09:38.159Z,101202.27
2023-01-04T05:12:26.205Z,101200.47
2023-01-04T05:14:55.962Z,101198.66
2023-01-04T05:17:25.774Z,101195.30
2023-01-04T05:19:55.597Z,101192.59
2023-01-04T05:22:25.417Z,101191.27
2023-01-04T05:24:55.222Z,101182.27
2023-01-04T05:27:25.008Z,101180.20
2023-01-04T05:30:12.677Z,101184.97
2023-01-04T05:32:42.428Z,101181.98
2023-01-04T05:35:12.337Z,101172.02
2023-01-04T05:37:42.763Z,101167.70
2023-01-04T05:40:12.544Z,101167.72
2023-01-04T05:42:42.295Z,101167.72
2023-01-04T05:45:12.322Z,101167.80
2023-01-04T05:47:42.388Z,101168.52
2023-01-04T05:50:12.750Z,101178.49
2023-01-04T05:52:42.498Z,101161.39
2023-01-04T05:55:12.573Z,101170.74
2023-01-04T05:57:42.424Z,101170.23
2023-01-04T06:00:13.680Z,101160.78
2023-01-04T06:02:43.729Z,101162.52
2023-01-04T06:05:13.859Z,101165.98
2023-01-04T06:07:43.598Z,101157.72
2023-01-04T06:10:14.452Z,101156.00
2023-01-04T06:12:44.266Z,101144.48
2023-01-04T06:15:14.481Z,101136.44
2023-01-04T06:17:44.016Z,101135.70
2023-01-04T06:20:13.506Z,101129.05
2023-01-04T06:22:43.547Z,101121.43
2023-01-04T06:25:13.578Z,101115.39
2023-01-04T06:27:43.342Z,101103.59
2023-01-04T06:30:13.304Z,101103.09
2023-01-04T06:32:44.474Z,101099.58
2023-01-04T06:35:13.951Z,101090.30
2023-01-04T06:37:43.726Z,101086.30
2023-01-04T06:40:13.380Z,101090.43
2023-01-04T06:42:45.625Z,101073.54
2023-01-04T06:45:17.009Z,101067.53
2023-01-04T06:47:48.255Z,101074.94
2023-01-04T06:50:18.237Z,101070.11
2023-01-04T06:52:47.968Z,101072.62
2023-01-04T06:55:17.781Z,101067.61
2023-01-04T06:57:47.703Z,101071.88
2023-01-04T07:00:18.507Z,101066.80
2023-01-04T07:03:13.578Z,101072.33
2023-01-04T07:05:19.065Z,101053.05
2023-01-04T07:07:48.604Z,101040.23
2023-01-04T07:10:18.249Z,101035.28
2023-01-04T07:12:48.118Z,101027.63
2023-01-04T07:15:39.016Z,101030.01
2023-01-04T07:17:50.733Z,101032.52
2023-01-04T07:20:20.579Z,101025.77
2023-01-04T07:22:50.439Z,101019.59
2023-01-04T07:25:20.985Z,101029.66
2023-01-04T07:27:54.356Z,101028.09
2023-01-04T07:30:24.890Z,101022.56
2023-01-04T07:32:56.624Z,101019.13
2023-01-04T07:35:26.420Z,101010.41
2023-01-04T07:37:59.024Z,101005.94
2023-01-04T07:40:28.782Z,101002.19
2023-01-04T07:42:59.770Z,100993.06
2023-01-04T07:45:29.341Z,101003.55
2023-01-04T07:47:59.271Z,101006.81
2023-01-04T07:50:29.341Z,101010.25
2023-01-04T07:52:59.100Z,101006.75
2023-01-04T07:55:28.886Z,101000.34
2023-01-04T07:57:58.964Z,100992.30
2023-01-04T08:00:28.728Z,100989.30
2023-01-04T08:02:58.615Z,100988.50
2023-01-04T08:05:28.518Z,100994.50
2023-01-04T08:07:58.264Z,100989.25
2023-01-04T08:10:28.137Z,100986.41
2023-01-04T08:13:00.228Z,100972.27
2023-01-04T08:15:30.315Z,100972.27
2023-01-04T08:18:00.833Z,100969.00
2023-01-04T08:20:30.401Z,100959.86
2023-01-04T08:23:00.175Z,100950.75
2023-01-04T08:25:29.925Z,100956.88
2023-01-04T08:27:59.761Z,100941.30
2023-01-04T08:30:29.619Z,100932.12
2023-01-04T08:33:00.587Z,100929.55
2023-01-04T08:35:30.092Z,100923.08
2023-01-04T08:38:28.505Z,100921.30
2023-01-04T08:40:59.619Z,100918.23
2023-01-04T08:43:02.840Z,100913.34
2023-01-04T08:45:32.624Z,100904.52
2023-01-04T08:48:02.679Z,100905.72
2023-01-04T08:50:32.729Z,100898.72
2023-01-04T08:53:02.462Z,100902.86
2023-01-04T08:55:32.263Z,100898.36
2023-01-04T08:58:03.395Z,100887.66
2023-01-04T09:00:33.183Z,100878.03
2023-01-04T09:03:03.523Z,100878.03
2023-01-04T09:05:33.944Z,100873.42
2023-01-04T09:08:03.909Z,100865.50
2023-01-04T09:10:33.891Z,100858.27
2023-01-04T09:13:03.639Z,100854.19
2023-01-04T09:15:34.262Z,100854.74
2023-01-04T09:18:31.939Z,100845.91
2023-01-04T09:20:39.081Z,100837.41
2023-01-04T09:23:08.804Z,100829.09
2023-01-04T09:25:40.277Z,100815.77
2023-01-04T09:28:09.738Z,100802.50
2023-01-04T09:30:39.534Z,100801.30
2023-01-04T09:33:09.150Z,100795.88
2023-01-04T09:35:38.968Z,100791.55
2023-01-04T09:38:08.636Z,100787.09
2023-01-04T09:40:44.298Z,100782.13
2023-01-04T09:43:20.149Z,100780.48
2023-01-04T09:45:51.441Z,100774.92
2023-01-04T09:48:25.955Z,100766.03
2023-01-04T09:51:07.793Z,100770.56
2023-01-04T09:53:49.678Z,100766.88
2023-01-04T09:56:25.037Z,100760.98
2023-01-04T09:58:55.639Z,100746.91
2023-01-04T10:01:31.044Z,100736.38
2023-01-04T10:04:06.964Z,100724.41
2023-01-04T10:06:37.970Z,100714.76
2023-01-04T10:09:10.802Z,100711.25
2023-01-04T10:11:58.788Z,100701.36
2023-01-04T10:14:40.044Z,100703.48
2023-01-04T10:17:23.833Z,100685.75
2023-01-04T10:21:18.803Z,100674.92
2023-01-04T10:22:47.707Z,100666.34
2023-01-04T10:25:20.520Z,100653.77
2023-01-04T10:28:21.087Z,100657.64
2023-01-04T10:30:56.434Z,100648.97
2023-01-04T10:33:40.756Z,100640.77
2023-01-04T10:36:21.212Z,100635.58
2023-01-04T10:39:05.785Z,100629.47
2023-01-04T10:41:38.912Z,100627.81
2023-01-04T10:44:24.083Z,100623.27
2023-01-04T10:47:14.358Z,100610.39
2023-01-04T10:50:02.219Z,100607.08
2023-01-04T10:52:47.308Z,100604.27
2023-01-04T10:55:35.274Z,100604.27
2023-01-04T10:58:18.241Z,100601.03
2023-01-04T11:00:57.427Z,100593.13
2023-01-04T11:03:42.211Z,100585.61
2023-01-04T11:06:20.546Z,100576.33
2023-01-04T11:08:59.166Z,100564.30
2023-01-04T11:11:34.877Z,100570.20
2023-01-04T11:14:05.438Z,100555.25
2023-01-04T11:16:35.071Z,100535.80
2023-01-04T11:19:06.607Z,100542.76
2023-01-04T11:21:48.073Z,100541.32
2023-01-04T11:24:34.609Z,100528.54
2023-01-04T11:26:52.941Z,100514.05
2023-01-04T11:29:31.216Z,100512.56
2023-01-04T11:32:18.644Z,100502.12
2023-01-04T11:34:52.505Z,100503.26
2023-01-04T11:37:37.485Z,100491.49
2023-01-04T11:40:24.930Z,100489.80
2023-01-04T11:43:14.040Z,100476.80
2023-01-04T11:45:49.818Z,100467.70
2023-01-04T11:48:19.332Z,100458.02
2023-01-04T11:50:52.465Z,100455.39
2023-01-04T11:53:30.852Z,100455.19
2023-01-04T11:56:13.247Z,100451.99
2023-01-04T11:58:45.230Z,100439.65
2023-01-04T12:01:26.003Z,100423.56
2023-01-04T12:03:54.807Z,100416.39
2023-01-04T12:06:46.701Z,100415.55
2023-01-04T12:09:18.298Z,100405.27
2023-01-04T12:11:50.458Z,100398.41
2023-01-04T12:14:25.714Z,100400.19
2023-01-04T12:17:25.763Z,100379.63
2023-01-04T12:19:57.990Z,100372.28
2023-01-04T12:22:40.356Z,100368.00
2023-01-04T12:25:29.232Z,100366.70
2023-01-04T12:27:59.532Z,100361.61
2023-01-04T12:30:46.718Z,100339.03
2023-01-04T12:33:34.221Z,100352.58
2023-01-04T12:36:07.811Z,100344.78
2023-01-04T12:38:57.336Z,100350.72
2023-01-04T12:41:39.797Z,100336.52
2023-01-04T12:44:42.923Z,100333.50
2023-01-04T12:47:42.352Z,100328.14
2023-01-04T12:50:14.896Z,100333.22
2023-01-04T12:53:29.412Z,100319.39
2023-01-04T12:55:30.616Z,100319.39
2023-01-04T12:58:07.172Z,100322.12
2023-01-04T13:00:55.087Z,100313.36
2023-01-04T13:03:27.958Z,100301.70
2023-01-04T13:06:03.835Z,100299.25
2023-01-04T13:08:35.787Z,100296.05
2023-01-04T13:11:09.905Z,100275.45
2023-01-04T13:13:56.206Z,100264.73
2023-01-04T13:17:02.180Z,100273.66
2023-01-04T13:19:32.328Z,100258.70
2023-01-04T13:22:01.865Z,100232.30
2023-01-04T13:24:35.735Z,100231.17
2023-01-04T13:27:10.224Z,100222.98
2023-01-04T13:29:42.652Z,100223.91
2023-01-04T13:32:24.057Z,100230.19
2023-01-04T13:34:58.400Z,100225.33
2023-01-04T13:37:33.573Z,100227.78
2023-01-04T13:40:28.659Z,100243.09
2023-01-04T13:43:34.548Z,100248.65
2023-01-04T13:46:24.984Z,100246.59
2023-01-04T13:48:57.514Z,100234.64
2023-01-04T13:51:36.771Z,100231.15
2023-01-04T13:54:09.451Z,100232.66
2023-01-04T13:56:39.230Z,100234.41
2023-01-04T13:59:10.706Z,100232.54
2023-01-04T14:01:46.428Z,100220.27
2023-01-04T14:04:22.071Z,100206.28
2023-01-04T14:06:53.744Z,100205.94
2023-01-04T14:09:26.482Z,100204.41
2023-01-04T14:12:08.028Z,100201.55
2023-01-04T14:14:58.629Z,100194.05
2023-01-04T14:17:44.514Z,100180.06
2023-01-04T14:20:23.795Z,100183.91
2023-01-04T14:22:53.563Z,100186.72
2023-01-04T14:25:38.537Z,100193.93
2023-01-04T14:28:29.741Z,100186.63
2023-01-04T14:31:06.709Z,100190.45
2023-01-04T14:33:48.871Z,100190.45
2023-01-04T14:36:27.282Z,100177.89
2023-01-04T14:39:11.262Z,100171.68
2023-01-04T14:41:46.255Z,100174.69
2023-01-04T14:44:18.604Z,100166.86
2023-01-04T14:46:54.912Z,100160.93
2023-01-04T14:49:26.351Z,100153.10
2023-01-04T14:51:56.698Z,100149.08
2023-01-04T14:54:28.584Z,100145.86
2023-01-04T14:56:59.612Z,100142.13
2023-01-04T14:59:29.369Z,100139.79
2023-01-04T15:01:59.612Z,100134.83
2023-01-04T15:04:29.585Z,100134.83
2023-01-04T15:07:01.548Z,100131.47
2023-01-04T15:09:31.834Z,100128.60
2023-01-04T15:12:01.394Z,100123.41
2023-01-04T15:14:31.428Z,100117.71
2023-01-04T15:17:01.313Z,100097.82
2023-01-04T15:19:37.364Z,100097.82
2023-01-04T15:22:02.533Z,100102.31
2023-01-04T15:24:32.378Z,100095.86
2023-01-04T15:27:02.202Z,100095.86
2023-01-04T15:29:31.953Z,100076.80
2023-01-04T15:32:02.077Z,100096.04
2023-01-04T15:34:31.888Z,100093.23
2023-01-04T15:37:01.746Z,100090.33
2023-01-04T15:39:31.535Z,100095.03
2023-01-04T15:42:19.240Z,100079.50
2023-01-04T15:44:49.266Z,100076.78
2023-01-04T15:47:18.951Z,100075.94
2023-01-04T15:49:48.703Z,100055.55
2023-01-04T15:52:18.523Z,100054.32
2023-01-04T15:54:48.262Z,100060.43
2023-01-04T15:57:17.821Z,100055.32
2023-01-04T15:59:50.678Z,100053.72
2023-01-04T16:02:20.377Z,100055.03
2023-01-04T16:04:50.497Z,100047.89
2023-01-04T16:07:20.504Z,100025.22
2023-01-04T16:09:50.469Z,100019.95
2023-01-04T16:12:37.877Z,99997.60
2023-01-04T16:15:08.063Z,100016.71
2023-01-04T16:17:37.707Z,100019.89
2023-01-04T16:20:08.429Z,100024.88
2023-01-04T16:22:38.305Z,100023.37
2023-01-04T16:25:11.151Z,100015.73
2023-01-04T16:27:41.971Z,100015.73
2023-01-04T16:30:13.952Z,100018.55
2023-01-04T16:32:45.393Z,100021.47
2023-01-04T16:35:14.096Z,100011.02
2023-01-04T16:37:43.500Z,100003.61
2023-01-04T16:40:13.735Z,99998.81
2023-01-04T16:42:45.144Z,99996.31
2023-01-04T16:45:15.386Z,99994.05
2023-01-04T16:47:46.300Z,99991.80
2023-01-04T16:50:16.119Z,99989.27
2023-01-04T16:52:46.212Z,99980.50
2023-01-04T16:55:20.191Z,99992.92
2023-01-04T16:57:47.322Z,99987.55
2023-01-04T17:00:19.103Z,99983.86
2023-01-04T17:02:48.976Z,99970.70
2023-01-04T17:05:18.500Z,99964.80
2023-01-04T17:07:48.338Z,99962.44
2023-01-04T17:10:18.140Z,99961.98
2023-01-04T17:12:49.032Z,99964.86
2023-01-04T17:17:50.878Z,99949.06
2023-01-04T17:20:20.642Z,99937.59
2023-01-04T17:22:50.593Z,99930.42
2023-01-04T17:25:20.309Z,99931.95
2023-01-04T17:27:50.172Z,99927.22
2023-01-04T17:30:19.897Z,99929.95
2023-01-04T17:32:49.391Z,99919.56
2023-01-04T17:35:19.180Z,99919.63
2023-01-04T17:37:48.991Z,99919.84
2023-01-04T17:40:22.936Z,99919.84
2023-01-04T17:42:49.776Z,99914.59
2023-01-04T17:45:19.596Z,99911.72
2023-01-04T17:47:50.182Z,99912.35
2023-01-04T17:50:20.894Z,99903.95
2023-01-04T17:52:50.785Z,99905.10
2023-01-04T17:55:21.227Z,99901.31
2023-01-04T17:57:50.983Z,99886.69
2023-01-04T18:00:20.993Z,99886.34
2023-01-04T18:02:50.777Z,99873.48
2023-01-04T18:05:20.296Z,99862.63
2023-01-04T18:07:50.048Z,99862.73
2023-01-04T18:10:33.096Z,99858.83
2023-01-04T18:12:51.113Z,99861.20
2023-01-04T18:15:20.721Z,99851.16
2023-01-04T18:17:50.967Z,99851.16
2023-01-04T18:20:24.979Z,99850.16
2023-01-04T18:22:52.375Z,99859.06
2023-01-04T18:25:22.133Z,99846.15
2023-01-04T18:27:53.345Z,99839.34
2023-01-04T18:30:22.811Z,99833.39
2023-01-04T18:32:52.848Z,99832.70
2023-01-04T18:35:22.749Z,99836.34
2023-01-04T18:37:52.536Z,99834.97
2023-01-04T18:40:22.458Z,99837.98
2023-01-04T18:42:52.566Z,99829.81
2023-01-04T18:45:22.354Z,99828.50
2023-01-04T18:47:53.103Z,99830.08
2023-01-04T18:50:22.621Z,99829.64
2023-01-04T18:52:52.412Z,99819.48
2023-01-04T18:55:21.856Z,99817.20
2023-01-04T18:57:51.636Z,99813.56
2023-01-04T19:00:21.381Z,99819.02
2023-01-04T19:02:51.254Z,99811.20
2023-01-04T19:05:21.035Z,99810.48
2023-01-04T19:07:51.181Z,99810.48
2023-01-04T19:10:21.287Z,99807.89
2023-01-04T19:12:51.023Z,99802.98
2023-01-04T19:15:20.838Z,99798.56
2023-01-04T19:17:51.143Z,99800.45
2023-01-04T19:20:21.868Z,99800.61
2023-01-04T19:22:51.646Z,99790.70
2023-01-04T19:25:27.897Z,99785.95
2023-01-04T19:27:52.817Z,99782.61
2023-01-04T19:30:22.374Z,99781.64
2023-01-04T19:32:52.147Z,99781.30
2023-01-04T19:35:21.653Z,99771.64
2023-01-04T19:37:51.585Z,99765.56
2023-01-04T19:40:21.344Z,99767.25
2023-01-04T19:42:51.182Z,99762.13
2023-01-04T19:45:21.151Z,99757.98
2023-01-04T19:47:51.985Z,99762.27
2023-01-04T19:50:22.114Z,99768.20
2023-01-04T19:52:51.709Z,99754.98
2023-01-04T19:55:21.299Z,99751.14
2023-01-04T19:57:51.127Z,99759.70
2023-01-04T20:00:20.818Z,99762.67
2023-01-04T20:02:50.757Z,99754.91
2023-01-04T20:05:20.301Z,99757.91
2023-01-04T20:07:50.832Z,99757.06
2023-01-04T20:10:20.415Z,99740.30
2023-01-04T20:12:50.267Z,99740.30
2023-01-04T20:15:19.783Z,99727.01
2023-01-04T20:17:49.542Z,99728.10
2023-01-04T20:20:19.267Z,99735.94
2023-01-04T20:22:49.277Z,99730.45
2023-01-04T20:25:19.145Z,99726.34
2023-01-04T20:27:49.010Z,99730.08
2023-01-04T20:30:19.060Z,99723.27
2023-01-04T20:32:49.860Z,99723.27
2023-01-04T20:35:20.005Z,99726.42
2023-01-04T20:37:51.022Z,99726.90
2023-01-04T20:40:21.018Z,99722.42
2023-01-04T20:43:08.848Z,99711.41
2023-01-04T20:45:48.867Z,99705.54
2023-01-04T20:48:18.445Z,99705.11
2023-01-04T20:50:48.179Z,99696.39
2023-01-04T20:53:17.919Z,99697.97
2023-01-04T20:55:48.108Z,99698.22
2023-01-04T20:58:18.373Z,99689.35
2023-01-04T21:00:47.966Z,99686.34
2023-01-04T21:03:17.851Z,99683.27
2023-01-04T21:05:48.105Z,99678.80
2023-01-04T21:08:17.645Z,99680.02
2023-01-04T21:10:47.388Z,99677.06
2023-01-04T21:13:17.057Z,99681.91
2023-01-04T21:15:46.868Z,99681.44
2023-01-04T21:18:16.838Z,99672.30
2023-01-04T21:20:47.205Z,99676.03
2023-01-04T21:23:19.202Z,99667.39
2023-01-04T21:25:50.168Z,99660.95
2023-01-04T21:28:22.274Z,99670.31
2023-01-04T21:30:52.342Z,99668.04
2023-01-04T21:33:24.968Z,99655.45
2023-01-04T21:35:55.056Z,99657.01
2023-01-04T21:38:24.992Z,99648.26
2023-01-04T21:40:54.758Z,99658.22
2023-01-04T21:43:24.552Z,99650.79
2023-01-04T21:45:54.326Z,99636.14
2023-01-04T21:48:23.881Z,99641.80
2023-01-04T21:50:54.944Z,99636.02
2023-01-04T21:53:24.514Z,99638.66
2023-01-04T21:56:09.094Z,99639.02
2023-01-04T21:58:39.861Z,99629.66
2023-01-04T22:01:12.711Z,99633.86
2023-01-04T22:03:42.966Z,99628.83
2023-01-04T22:06:14.067Z,99626.16
2023-01-04T22:08:44.955Z,99610.19
2023-01-04T22:11:14.452Z,99600.26
2023-01-04T22:13:44.620Z,99591.73
2023-01-04T22:16:16.455Z,99586.06
2023-01-04T22:18:50.078Z,99586.06
2023-01-04T22:21:23.674Z,99581.27
2023-01-04T22:23:54.664Z,99577.17
2023-01-04T22:26:24.949Z,99578.89
2023-01-04T22:28:58.823Z,99569.61
2023-01-04T22:31:28.651Z,99572.61
2023-01-04T22:33:58.642Z,99563.48
2023-01-04T22:36:28.742Z,99561.20
2023-01-04T22:38:58.862Z,99561.20
2023-01-04T22:41:29.868Z,99559.75
2023-01-04T22:44:03.446Z,99558.52
2023-01-04T22:46:35.956Z,99544.58
2023-01-04T22:49:06.434Z,99550.47
2023-01-04T22:51:36.223Z,99547.51
2023-01-04T22:54:06.596Z,99544.34
2023-01-04T22:56:36.362Z,99536.75
2023-01-04T22:59:06.731Z,99544.45
2023-01-04T23:01:36.675Z,99542.87
2023-01-04T23:04:07.476Z,99542.88
2023-01-04T23:06:37.195Z,99546.98
2023-01-04T23:09:08.362Z,99552.75
2023-01-04T23:11:39.328Z,99542.02
2023-01-04T23:14:11.550Z,99531.88
2023-01-04T23:16:41.629Z,99534.86
2023-01-04T23:19:32.122Z,99516.61
2023-01-04T23:22:04.180Z,99522.48
2023-01-04T23:24:34.949Z,99525.81
2023-01-04T23:27:04.732Z,99520.68
2023-01-04T23:29:34.593Z,99513.92
2023-01-04T23:32:04.522Z,99511.53
2023-01-04T23:34:34.650Z,99503.34
2023-01-04T23:37:04.535Z,99503.88
2023-01-04T23:39:34.336Z,99491.85
2023-01-04T23:42:04.194Z,99491.85
2023-01-04T23:44:33.937Z,99486.16
2023-01-04T23:47:07.962Z,99478.71
2023-01-04T23:49:39.593Z,99476.67
2023-01-04T23:52:09.523Z,99475.71
2023-01-04T23:54:40.603Z,99469.56
2023-01-04T23:57:10.392Z,99454.32
2023-01-04T23:59:40.450Z,99453.38
